sensor_id;sensor_type;location;lat;lon;timestamp;P1;durP1;ratioP1;P2;durP2;ratioP2
76103;SDS011;64831;44.870;37.336;2023-12-20T00:01:40;8.18;;;3.45;;
76103;SDS011;64831;44.870;37.336;2023-12-20T00:04:06;11.35;;;6.60;;
76103;SDS011;64831;44.870;37.336;2023-12-20T00:06:32;8.93;;;4.30;;
76103;SDS011;64831;44.870;37.336;2023-12-20T00:08:58;13.25;;;4.88;;
76103;SDS011;64831;44.870;37.336;2023-12-20T00:11:24;8.63;;;4.15;;
76103;SDS011;64831;44.870;37.336;2023-12-20T00:13:50;12.13;;;5.15;;
76103;SDS011;64831;44.870;37.336;2023-12-20T00:16:17;10.05;;;3.38;;
76103;SDS011;64831;44.870;37.336;2023-12-20T00:18:43;7.75;;;3.83;;
76103;SDS011;64831;44.870;37.336;2023-12-20T00:21:09;12.70;;;4.70;;
76103;SDS011;64831;44.870;37.336;2023-12-20T00:23:35;7.28;;;3.45;;
76103;SDS011;64831;44.870;37.336;2023-12-20T00:26:01;10.98;;;4.00;;
76103;SDS011;64831;44.870;37.336;2023-12-20T00:28:27;10.07;;;3.58;;
76103;SDS011;64831;44.870;37.336;2023-12-20T00:30:53;7.72;;;3.35;;
76103;SDS011;64831;44.870;37.336;2023-12-20T00:33:19;6.68;;;3.50;;
76103;SDS011;64831;44.870;37.336;2023-12-20T00:35:45;11.80;;;3.47;;
76103;SDS011;64831;44.870;37.336;2023-12-20T00:38:10;6.65;;;3.13;;
76103;SDS011;64831;44.870;37.336;2023-12-20T00:40:37;5.18;;;3.13;;
76103;SDS011;64831;44.870;37.336;2023-12-20T00:43:03;8.73;;;3.75;;
76103;SDS011;64831;44.870;37.336;2023-12-20T00:45:29;13.30;;;4.35;;
76103;SDS011;64831;44.870;37.336;2023-12-20T00:47:55;6.78;;;3.92;;
76103;SDS011;64831;44.870;37.336;2023-12-20T00:50:21;6.97;;;3.83;;
76103;SDS011;64831;44.870;37.336;2023-12-20T00:52:47;5.60;;;3.00;;
76103;SDS011;64831;44.870;37.336;2023-12-20T00:55:14;11.27;;;4.35;;
76103;SDS011;64831;44.870;37.336;2023-12-20T00:57:40;8.38;;;3.95;;
76103;SDS011;64831;44.870;37.336;2023-12-20T01:00:06;11.50;;;4.70;;
76103;SDS011;64831;44.870;37.336;2023-12-20T01:02:35;8.18;;;4.32;;
76103;SDS011;64831;44.870;37.336;2023-12-20T01:05:01;9.65;;;3.83;;
76103;SDS011;64831;44.870;37.336;2023-12-20T01:07:27;10.32;;;3.80;;
76103;SDS011;64831;44.870;37.336;2023-12-20T01:09:53;9.68;;;4.07;;
76103;SDS011;64831;44.870;37.336;2023-12-20T01:12:19;6.95;;;3.10;;
76103;SDS011;64831;44.870;37.336;2023-12-20T01:14:45;14.90;;;4.97;;
76103;SDS011;64831;44.870;37.336;2023-12-20T01:17:12;13.23;;;5.05;;
76103;SDS011;64831;44.870;37.336;2023-12-20T01:19:37;7.18;;;3.88;;
76103;SDS011;64831;44.870;37.336;2023-12-20T01:22:04;9.43;;;3.03;;
76103;SDS011;64831;44.870;37.336;2023-12-20T01:24:30;10.93;;;5.40;;
76103;SDS011;64831;44.870;37.336;2023-12-20T01:26:56;13.35;;;5.68;;
76103;SDS011;64831;44.870;37.336;2023-12-20T01:29:22;9.55;;;4.47;;
76103;SDS011;64831;44.870;37.336;2023-12-20T01:31:48;11.80;;;6.05;;
76103;SDS011;64831;44.870;37.336;2023-12-20T01:34:14;10.27;;;4.13;;
76103;SDS011;64831;44.870;37.336;2023-12-20T01:36:40;10.65;;;4.28;;
76103;SDS011;64831;44.870;37.336;2023-12-20T01:39:05;6.53;;;3.58;;
76103;SDS011;64831;44.870;37.336;2023-12-20T01:41:31;10.95;;;4.97;;
76103;SDS011;64831;44.870;37.336;2023-12-20T01:43:58;13.88;;;5.00;;
76103;SDS011;64831;44.870;37.336;2023-12-20T01:46:23;7.60;;;3.53;;
76103;SDS011;64831;44.870;37.336;2023-12-20T01:48:51;11.50;;;5.28;;
76103;SDS011;64831;44.870;37.336;2023-12-20T01:51:17;15.40;;;5.07;;
76103;SDS011;64831;44.870;37.336;2023-12-20T01:53:43;9.10;;;4.93;;
76103;SDS011;64831;44.870;37.336;2023-12-20T01:56:09;7.10;;;4.03;;
76103;SDS011;64831;44.870;37.336;2023-12-20T01:58:42;10.35;;;4.25;;
76103;SDS011;64831;44.870;37.336;2023-12-20T02:01:10;6.95;;;3.60;;
76103;SDS011;64831;44.870;37.336;2023-12-20T02:03:36;8.65;;;4.15;;
76103;SDS011;64831;44.870;37.336;2023-12-20T02:06:03;7.35;;;3.80;;
76103;SDS011;64831;44.870;37.336;2023-12-20T02:08:30;10.13;;;3.70;;
76103;SDS011;64831;44.870;37.336;2023-12-20T02:10:56;6.53;;;3.25;;
76103;SDS011;64831;44.870;37.336;2023-12-20T02:13:23;8.13;;;3.58;;
76103;SDS011;64831;44.870;37.336;2023-12-20T02:15:49;12.13;;;4.05;;
76103;SDS011;64831;44.870;37.336;2023-12-20T02:18:15;13.15;;;4.53;;
76103;SDS011;64831;44.870;37.336;2023-12-20T02:20:42;9.25;;;3.53;;
76103;SDS011;64831;44.870;37.336;2023-12-20T02:23:08;9.93;;;3.67;;
76103;SDS011;64831;44.870;37.336;2023-12-20T02:25:34;10.07;;;4.15;;
76103;SDS011;64831;44.870;37.336;2023-12-20T02:28:00;8.63;;;3.85;;
76103;SDS011;64831;44.870;37.336;2023-12-20T02:30:26;6.57;;;3.47;;
76103;SDS011;64831;44.870;37.336;2023-12-20T02:32:52;8.50;;;3.72;;
76103;SDS011;64831;44.870;37.336;2023-12-20T02:35:19;6.32;;;3.25;;
76103;SDS011;64831;44.870;37.336;2023-12-20T02:37:45;7.05;;;3.20;;
76103;SDS011;64831;44.870;37.336;2023-12-20T02:40:11;9.45;;;3.42;;
76103;SDS011;64831;44.870;37.336;2023-12-20T02:42:37;11.95;;;4.28;;
76103;SDS011;64831;44.870;37.336;2023-12-20T02:45:03;8.65;;;3.78;;
76103;SDS011;64831;44.870;37.336;2023-12-20T02:47:32;4.70;;;2.92;;
76103;SDS011;64831;44.870;37.336;2023-12-20T02:49:58;10.38;;;3.97;;
76103;SDS011;64831;44.870;37.336;2023-12-20T02:52:24;7.55;;;3.80;;
76103;SDS011;64831;44.870;37.336;2023-12-20T02:54:50;6.32;;;3.28;;
76103;SDS011;64831;44.870;37.336;2023-12-20T02:57:16;9.25;;;3.08;;
76103;SDS011;64831;44.870;37.336;2023-12-20T02:59:42;6.72;;;3.45;;
76103;SDS011;64831;44.870;37.336;2023-12-20T03:02:08;7.53;;;3.72;;
76103;SDS011;64831;44.870;37.336;2023-12-20T03:04:34;6.05;;;3.05;;
76103;SDS011;64831;44.870;37.336;2023-12-20T03:07:00;8.82;;;3.90;;
76103;SDS011;64831;44.870;37.336;2023-12-20T03:09:26;9.98;;;4.25;;
76103;SDS011;64831;44.870;37.336;2023-12-20T03:11:52;6.30;;;3.30;;
76103;SDS011;64831;44.870;37.336;2023-12-20T03:14:18;7.35;;;4.13;;
76103;SDS011;64831;44.870;37.336;2023-12-20T03:16:50;4.82;;;2.83;;
76103;SDS011;64831;44.870;37.336;2023-12-20T03:19:17;7.60;;;3.50;;
76103;SDS011;64831;44.870;37.336;2023-12-20T03:21:44;10.80;;;4.78;;
76103;SDS011;64831;44.870;37.336;2023-12-20T03:24:10;12.05;;;4.15;;
76103;SDS011;64831;44.870;37.336;2023-12-20T03:26:36;8.88;;;4.43;;
76103;SDS011;64831;44.870;37.336;2023-12-20T03:29:02;9.40;;;4.28;;
76103;SDS011;64831;44.870;37.336;2023-12-20T03:31:28;12.27;;;4.15;;
76103;SDS011;64831;44.870;37.336;2023-12-20T03:33:54;11.10;;;4.80;;
76103;SDS011;64831;44.870;37.336;2023-12-20T03:36:20;7.60;;;3.38;;
76103;SDS011;64831;44.870;37.336;2023-12-20T03:38:46;14.20;;;4.72;;
76103;SDS011;64831;44.870;37.336;2023-12-20T03:41:12;10.07;;;4.63;;
76103;SDS011;64831;44.870;37.336;2023-12-20T03:43:38;10.75;;;5.03;;
76103;SDS011;64831;44.870;37.336;2023-12-20T03:46:04;9.77;;;4.03;;
76103;SDS011;64831;44.870;37.336;2023-12-20T03:48:31;6.85;;;3.42;;
76103;SDS011;64831;44.870;37.336;2023-12-20T03:50:57;9.93;;;4.40;;
76103;SDS011;64831;44.870;37.336;2023-12-20T03:53:23;9.60;;;4.70;;
76103;SDS011;64831;44.870;37.336;2023-12-20T03:55:49;11.95;;;3.97;;
76103;SDS011;64831;44.870;37.336;2023-12-20T03:58:15;6.93;;;3.58;;
76103;SDS011;64831;44.870;37.336;2023-12-20T04:00:41;11.10;;;4.60;;
76103;SDS011;64831;44.870;37.336;2023-12-20T04:03:07;13.55;;;4.60;;
76103;SDS011;64831;44.870;37.336;2023-12-20T04:05:33;9.38;;;4.18;;
76103;SDS011;64831;44.870;37.336;2023-12-20T04:08:01;8.85;;;3.63;;
76103;SDS011;64831;44.870;37.336;2023-12-20T04:10:27;4.90;;;2.85;;
76103;SDS011;64831;44.870;37.336;2023-12-20T04:12:53;7.53;;;3.95;;
76103;SDS011;64831;44.870;37.336;2023-12-20T04:15:20;6.97;;;3.80;;
76103;SDS011;64831;44.870;37.336;2023-12-20T04:17:46;6.97;;;3.85;;
76103;SDS011;64831;44.870;37.336;2023-12-20T04:20:12;9.40;;;4.32;;
76103;SDS011;64831;44.870;37.336;2023-12-20T04:22:38;8.95;;;3.88;;
76103;SDS011;64831;44.870;37.336;2023-12-20T04:25:04;8.18;;;3.45;;
76103;SDS011;64831;44.870;37.336;2023-12-20T04:27:30;9.48;;;4.00;;
76103;SDS011;64831;44.870;37.336;2023-12-20T04:29:56;9.32;;;3.05;;
76103;SDS011;64831;44.870;37.336;2023-12-20T04:32:22;8.20;;;2.50;;
76103;SDS011;64831;44.870;37.336;2023-12-20T04:34:48;6.30;;;2.70;;
76103;SDS011;64831;44.870;37.336;2023-12-20T04:37:14;3.42;;;1.80;;
76103;SDS011;64831;44.870;37.336;2023-12-20T04:39:40;2.75;;;1.50;;
76103;SDS011;64831;44.870;37.336;2023-12-20T04:42:07;4.75;;;1.80;;
76103;SDS011;64831;44.870;37.336;2023-12-20T04:44:33;4.88;;;1.40;;
76103;SDS011;64831;44.870;37.336;2023-12-20T04:46:59;7.18;;;3.58;;
76103;SDS011;64831;44.870;37.336;2023-12-20T04:49:25;8.75;;;1.83;;
76103;SDS011;64831;44.870;37.336;2023-12-20T04:51:51;4.43;;;2.13;;
76103;SDS011;64831;44.870;37.336;2023-12-20T04:54:17;2.63;;;1.70;;
76103;SDS011;64831;44.870;37.336;2023-12-20T04:56:43;4.10;;;1.52;;
76103;SDS011;64831;44.870;37.336;2023-12-20T04:59:09;5.63;;;2.38;;
76103;SDS011;64831;44.870;37.336;2023-12-20T05:01:35;9.25;;;2.20;;
76103;SDS011;64831;44.870;37.336;2023-12-20T05:04:01;6.47;;;1.70;;
76103;SDS011;64831;44.870;37.336;2023-12-20T05:06:27;3.63;;;1.50;;
76103;SDS011;64831;44.870;37.336;2023-12-20T05:08:53;5.55;;;1.67;;
76103;SDS011;64831;44.870;37.336;2023-12-20T05:11:19;7.20;;;2.17;;
76103;SDS011;64831;44.870;37.336;2023-12-20T05:13:45;5.03;;;1.55;;
76103;SDS011;64831;44.870;37.336;2023-12-20T05:16:11;5.53;;;1.50;;
76103;SDS011;64831;44.870;37.336;2023-12-20T05:18:39;2.58;;;1.55;;
76103;SDS011;64831;44.870;37.336;2023-12-20T05:21:05;4.80;;;1.90;;
76103;SDS011;64831;44.870;37.336;2023-12-20T05:23:31;6.10;;;2.60;;
76103;SDS011;64831;44.870;37.336;2023-12-20T05:25:58;5.90;;;2.05;;
76103;SDS011;64831;44.870;37.336;2023-12-20T05:28:24;5.50;;;1.70;;
76103;SDS011;64831;44.870;37.336;2023-12-20T05:30:51;4.22;;;1.50;;
76103;SDS011;64831;44.870;37.336;2023-12-20T05:33:17;3.90;;;1.70;;
76103;SDS011;64831;44.870;37.336;2023-12-20T05:35:43;3.05;;;1.55;;
76103;SDS011;64831;44.870;37.336;2023-12-20T05:38:09;6.20;;;2.45;;
76103;SDS011;64831;44.870;37.336;2023-12-20T05:40:35;5.18;;;2.17;;
76103;SDS011;64831;44.870;37.336;2023-12-20T05:43:01;3.15;;;1.70;;
76103;SDS011;64831;44.870;37.336;2023-12-20T05:45:27;2.90;;;1.67;;
76103;SDS011;64831;44.870;37.336;2023-12-20T05:47:53;2.53;;;1.33;;
76103;SDS011;64831;44.870;37.336;2023-12-20T05:50:20;3.63;;;1.38;;
76103;SDS011;64831;44.870;37.336;2023-12-20T05:52:46;2.72;;;1.55;;
76103;SDS011;64831;44.870;37.336;2023-12-20T05:55:12;3.60;;;1.60;;
76103;SDS011;64831;44.870;37.336;2023-12-20T05:57:38;6.22;;;1.52;;
76103;SDS011;64831;44.870;37.336;2023-12-20T06:00:04;4.05;;;2.08;;
76103;SDS011;64831;44.870;37.336;2023-12-20T06:02:37;6.45;;;1.67;;
76103;SDS011;64831;44.870;37.336;2023-12-20T06:05:06;4.00;;;1.38;;
76103;SDS011;64831;44.870;37.336;2023-12-20T06:07:32;3.53;;;1.43;;
76103;SDS011;64831;44.870;37.336;2023-12-20T06:09:58;4.93;;;1.27;;
76103;SDS011;64831;44.870;37.336;2023-12-20T06:12:24;2.55;;;1.30;;
76103;SDS011;64831;44.870;37.336;2023-12-20T06:14:52;4.35;;;1.33;;
76103;SDS011;64831;44.870;37.336;2023-12-20T06:17:18;5.90;;;1.75;;
76103;SDS011;64831;44.870;37.336;2023-12-20T06:19:44;1.92;;;1.40;;
76103;SDS011;64831;44.870;37.336;2023-12-20T06:22:13;1.83;;;1.45;;
76103;SDS011;64831;44.870;37.336;2023-12-20T06:24:40;5.07;;;1.92;;
76103;SDS011;64831;44.870;37.336;2023-12-20T06:27:06;4.28;;;1.30;;
76103;SDS011;64831;44.870;37.336;2023-12-20T06:29:32;3.97;;;1.50;;
76103;SDS011;64831;44.870;37.336;2023-12-20T06:31:58;2.78;;;1.20;;
76103;SDS011;64831;44.870;37.336;2023-12-20T06:34:23;2.35;;;1.20;;
76103;SDS011;64831;44.870;37.336;2023-12-20T06:36:49;2.00;;;1.20;;
76103;SDS011;64831;44.870;37.336;2023-12-20T06:39:15;2.83;;;1.42;;
76103;SDS011;64831;44.870;37.336;2023-12-20T06:41:41;2.42;;;1.52;;
76103;SDS011;64831;44.870;37.336;2023-12-20T06:44:08;3.53;;;1.50;;
76103;SDS011;64831;44.870;37.336;2023-12-20T06:46:34;1.80;;;1.20;;
76103;SDS011;64831;44.870;37.336;2023-12-20T06:49:00;2.75;;;1.30;;
76103;SDS011;64831;44.870;37.336;2023-12-20T06:51:27;2.45;;;1.58;;
76103;SDS011;64831;44.870;37.336;2023-12-20T06:53:53;6.90;;;1.63;;
76103;SDS011;64831;44.870;37.336;2023-12-20T06:56:19;1.35;;;1.20;;
76103;SDS011;64831;44.870;37.336;2023-12-20T06:58:45;1.77;;;1.30;;
76103;SDS011;64831;44.870;37.336;2023-12-20T07:01:12;2.63;;;1.42;;
76103;SDS011;64831;44.870;37.336;2023-12-20T07:03:38;2.47;;;1.20;;
76103;SDS011;64831;44.870;37.336;2023-12-20T07:06:05;2.85;;;1.30;;
76103;SDS011;64831;44.870;37.336;2023-12-20T07:08:31;5.80;;;1.85;;
76103;SDS011;64831;44.870;37.336;2023-12-20T07:10:57;2.22;;;1.40;;
76103;SDS011;64831;44.870;37.336;2023-12-20T07:13:24;3.80;;;1.30;;
76103;SDS011;64831;44.870;37.336;2023-12-20T07:15:50;2.95;;;1.50;;
76103;SDS011;64831;44.870;37.336;2023-12-20T07:18:16;3.55;;;1.30;;
76103;SDS011;64831;44.870;37.336;2023-12-20T07:20:42;2.42;;;1.40;;
76103;SDS011;64831;44.870;37.336;2023-12-20T07:23:08;2.08;;;1.10;;
76103;SDS011;64831;44.870;37.336;2023-12-20T07:25:34;4.10;;;1.00;;
76103;SDS011;64831;44.870;37.336;2023-12-20T07:28:00;4.00;;;1.15;;
76103;SDS011;64831;44.870;37.336;2023-12-20T07:30:26;2.85;;;1.27;;
76103;SDS011;64831;44.870;37.336;2023-12-20T07:32:52;1.98;;;1.30;;
76103;SDS011;64831;44.870;37.336;2023-12-20T07:35:18;6.93;;;1.58;;
76103;SDS011;64831;44.870;37.336;2023-12-20T07:37:44;2.22;;;1.40;;
76103;SDS011;64831;44.870;37.336;2023-12-20T07:40:10;2.53;;;1.30;;
76103;SDS011;64831;44.870;37.336;2023-12-20T07:42:36;2.63;;;1.00;;
76103;SDS011;64831;44.870;37.336;2023-12-20T07:45:03;1.75;;;1.02;;
76103;SDS011;64831;44.870;37.336;2023-12-20T07:47:29;6.68;;;1.80;;
76103;SDS011;64831;44.870;37.336;2023-12-20T07:49:55;2.40;;;1.20;;
76103;SDS011;64831;44.870;37.336;2023-12-20T07:52:21;3.03;;;1.17;;
76103;SDS011;64831;44.870;37.336;2023-12-20T07:54:48;4.60;;;1.20;;
76103;SDS011;64831;44.870;37.336;2023-12-20T07:57:14;2.30;;;0.80;;
76103;SDS011;64831;44.870;37.336;2023-12-20T07:59:40;3.78;;;1.52;;
76103;SDS011;64831;44.870;37.336;2023-12-20T08:02:06;1.73;;;1.20;;
76103;SDS011;64831;44.870;37.336;2023-12-20T08:04:32;3.72;;;1.10;;
76103;SDS011;64831;44.870;37.336;2023-12-20T08:06:58;3.20;;;1.23;;
76103;SDS011;64831;44.870;37.336;2023-12-20T08:09:25;4.72;;;1.08;;
76103;SDS011;64831;44.870;37.336;2023-12-20T08:11:51;5.03;;;1.52;;
76103;SDS011;64831;44.870;37.336;2023-12-20T08:14:17;2.22;;;1.10;;
76103;SDS011;64831;44.870;37.336;2023-12-20T08:16:43;3.05;;;1.10;;
76103;SDS011;64831;44.870;37.336;2023-12-20T08:19:09;2.90;;;1.15;;
76103;SDS011;64831;44.870;37.336;2023-12-20T08:21:35;2.70;;;1.33;;
76103;SDS011;64831;44.870;37.336;2023-12-20T08:24:01;5.35;;;1.40;;
76103;SDS011;64831;44.870;37.336;2023-12-20T08:26:28;7.00;;;1.77;;
76103;SDS011;64831;44.870;37.336;2023-12-20T08:28:54;1.75;;;1.13;;
76103;SDS011;64831;44.870;37.336;2023-12-20T08:31:20;3.17;;;1.35;;
76103;SDS011;64831;44.870;37.336;2023-12-20T08:33:47;5.70;;;1.70;;
76103;SDS011;64831;44.870;37.336;2023-12-20T08:36:14;1.85;;;1.20;;
76103;SDS011;64831;44.870;37.336;2023-12-20T08:38:40;4.00;;;1.30;;
76103;SDS011;64831;44.870;37.336;2023-12-20T08:41:06;3.75;;;1.17;;
76103;SDS011;64831;44.870;37.336;2023-12-20T08:43:33;2.13;;;1.05;;
76103;SDS011;64831;44.870;37.336;2023-12-20T08:46:00;1.63;;;1.00;;
76103;SDS011;64831;44.870;37.336;2023-12-20T08:48:26;2.50;;;0.98;;
76103;SDS011;64831;44.870;37.336;2023-12-20T08:50:53;2.35;;;1.00;;
76103;SDS011;64831;44.870;37.336;2023-12-20T08:53:19;4.05;;;1.40;;
76103;SDS011;64831;44.870;37.336;2023-12-20T08:55:45;1.98;;;1.02;;
76103;SDS011;64831;44.870;37.336;2023-12-20T08:58:12;2.33;;;0.90;;
76103;SDS011;64831;44.870;37.336;2023-12-20T09:00:38;5.15;;;1.00;;
76103;SDS011;64831;44.870;37.336;2023-12-20T09:03:04;1.77;;;1.10;;
76103;SDS011;64831;44.870;37.336;2023-12-20T09:05:30;2.08;;;1.00;;
76103;SDS011;64831;44.870;37.336;2023-12-20T09:07:56;2.15;;;0.80;;
76103;SDS011;64831;44.870;37.336;2023-12-20T09:10:22;1.27;;;0.90;;
76103;SDS011;64831;44.870;37.336;2023-12-20T09:12:49;1.15;;;0.90;;
76103;SDS011;64831;44.870;37.336;2023-12-20T09:15:15;2.13;;;1.10;;
76103;SDS011;64831;44.870;37.336;2023-12-20T09:17:42;1.63;;;1.05;;
76103;SDS011;64831;44.870;37.336;2023-12-20T09:20:09;3.75;;;1.13;;
76103;SDS011;64831;44.870;37.336;2023-12-20T09:22:35;4.38;;;1.23;;
76103;SDS011;64831;44.870;37.336;2023-12-20T09:25:04;5.95;;;1.00;;
76103;SDS011;64831;44.870;37.336;2023-12-20T09:27:30;2.67;;;1.08;;
76103;SDS011;64831;44.870;37.336;2023-12-20T09:29:56;1.92;;;1.20;;
76103;SDS011;64831;44.870;37.336;2023-12-20T09:32:22;2.20;;;1.30;;
76103;SDS011;64831;44.870;37.336;2023-12-20T09:34:48;3.45;;;1.35;;
76103;SDS011;64831;44.870;37.336;2023-12-20T09:37:14;3.20;;;1.10;;
76103;SDS011;64831;44.870;37.336;2023-12-20T09:39:40;5.85;;;1.17;;
76103;SDS011;64831;44.870;37.336;2023-12-20T09:42:06;3.88;;;1.00;;
76103;SDS011;64831;44.870;37.336;2023-12-20T09:44:33;2.08;;;1.08;;
76103;SDS011;64831;44.870;37.336;2023-12-20T09:47:03;2.15;;;1.02;;
76103;SDS011;64831;44.870;37.336;2023-12-20T09:49:29;1.98;;;1.17;;
76103;SDS011;64831;44.870;37.336;2023-12-20T09:51:56;4.43;;;0.88;;
76103;SDS011;64831;44.870;37.336;2023-12-20T09:54:23;5.28;;;1.40;;
76103;SDS011;64831;44.870;37.336;2023-12-20T09:56:49;1.13;;;0.90;;
76103;SDS011;64831;44.870;37.336;2023-12-20T09:59:15;3.90;;;1.85;;
76103;SDS011;64831;44.870;37.336;2023-12-20T10:01:42;2.60;;;1.20;;
76103;SDS011;64831;44.870;37.336;2023-12-20T10:04:09;1.50;;;0.95;;
76103;SDS011;64831;44.870;37.336;2023-12-20T10:06:41;2.33;;;1.10;;
76103;SDS011;64831;44.870;37.336;2023-12-20T10:09:08;1.67;;;1.17;;
76103;SDS011;64831;44.870;37.336;2023-12-20T10:11:38;1.77;;;1.00;;
76103;SDS011;64831;44.870;37.336;2023-12-20T10:14:05;2.60;;;1.02;;
76103;SDS011;64831;44.870;37.336;2023-12-20T10:16:31;2.08;;;1.23;;
76103;SDS011;64831;44.870;37.336;2023-12-20T10:18:58;1.27;;;0.90;;
76103;SDS011;64831;44.870;37.336;2023-12-20T10:21:25;1.98;;;1.05;;
76103;SDS011;64831;44.870;37.336;2023-12-20T10:23:52;4.95;;;1.42;;
76103;SDS011;64831;44.870;37.336;2023-12-20T10:26:23;1.52;;;0.90;;
76103;SDS011;64831;44.870;37.336;2023-12-20T10:29:00;2.35;;;1.10;;
76103;SDS011;64831;44.870;37.336;2023-12-20T10:33:53;4.88;;;1.20;;
76103;SDS011;64831;44.870;37.336;2023-12-20T10:36:19;2.22;;;1.17;;
76103;SDS011;64831;44.870;37.336;2023-12-20T10:38:45;3.85;;;1.30;;
76103;SDS011;64831;44.870;37.336;2023-12-20T10:41:13;2.05;;;1.10;;
76103;SDS011;64831;44.870;37.336;2023-12-20T10:43:42;2.10;;;1.00;;
76103;SDS011;64831;44.870;37.336;2023-12-20T10:46:09;3.58;;;1.20;;
76103;SDS011;64831;44.870;37.336;2023-12-20T10:48:35;3.80;;;1.10;;
76103;SDS011;64831;44.870;37.336;2023-12-20T10:51:02;2.88;;;1.25;;
76103;SDS011;64831;44.870;37.336;2023-12-20T10:53:30;2.45;;;1.23;;
76103;SDS011;64831;44.870;37.336;2023-12-20T10:55:57;2.03;;;1.02;;
76103;SDS011;64831;44.870;37.336;2023-12-20T10:58:27;2.38;;;0.93;;
76103;SDS011;64831;44.870;37.336;2023-12-20T11:00:59;0.73;;;0.70;;
76103;SDS011;64831;44.870;37.336;2023-12-20T11:03:27;1.45;;;1.05;;
76103;SDS011;64831;44.870;37.336;2023-12-20T11:09:53;1.90;;;0.80;;
76103;SDS011;64831;44.870;37.336;2023-12-20T11:14:40;1.67;;;1.10;;
76103;SDS011;64831;44.870;37.336;2023-12-20T11:17:10;1.58;;;1.00;;
76103;SDS011;64831;44.870;37.336;2023-12-20T11:22:27;2.45;;;1.40;;
76103;SDS011;64831;44.870;37.336;2023-12-20T11:25:14;3.67;;;1.10;;
76103;SDS011;64831;44.870;37.336;2023-12-20T11:27:40;2.40;;;0.88;;
76103;SDS011;64831;44.870;37.336;2023-12-20T11:30:08;1.73;;;0.93;;
76103;SDS011;64831;44.870;37.336;2023-12-20T11:32:35;1.17;;;0.68;;
76103;SDS011;64831;44.870;37.336;2023-12-20T11:37:37;3.33;;;1.33;;
76103;SDS011;64831;44.870;37.336;2023-12-20T11:40:08;4.55;;;1.10;;
76103;SDS011;64831;44.870;37.336;2023-12-20T11:42:40;3.67;;;1.10;;
76103;SDS011;64831;44.870;37.336;2023-12-20T11:45:10;1.45;;;1.10;;
76103;SDS011;64831;44.870;37.336;2023-12-20T11:47:42;2.00;;;1.05;;
76103;SDS011;64831;44.870;37.336;2023-12-20T11:50:10;2.45;;;1.30;;
76103;SDS011;64831;44.870;37.336;2023-12-20T11:52:36;2.20;;;0.95;;
76103;SDS011;64831;44.870;37.336;2023-12-20T11:55:02;1.50;;;1.00;;
76103;SDS011;64831;44.870;37.336;2023-12-20T11:57:29;4.82;;;1.20;;
76103;SDS011;64831;44.870;37.336;2023-12-20T11:59:56;3.13;;;1.35;;
76103;SDS011;64831;44.870;37.336;2023-12-20T12:02:22;1.92;;;1.20;;
76103;SDS011;64831;44.870;37.336;2023-12-20T12:04:49;3.20;;;1.10;;
76103;SDS011;64831;44.870;37.336;2023-12-20T12:07:18;3.53;;;1.52;;
76103;SDS011;64831;44.870;37.336;2023-12-20T12:09:45;4.00;;;1.30;;
76103;SDS011;64831;44.870;37.336;2023-12-20T12:12:12;2.15;;;1.10;;
76103;SDS011;64831;44.870;37.336;2023-12-20T12:14:38;4.20;;;1.25;;
76103;SDS011;64831;44.870;37.336;2023-12-20T12:17:14;1.42;;;0.77;;
76103;SDS011;64831;44.870;37.336;2023-12-20T12:19:41;5.40;;;1.10;;
76103;SDS011;64831;44.870;37.336;2023-12-20T12:22:12;4.93;;;1.30;;
76103;SDS011;64831;44.870;37.336;2023-12-20T12:24:45;1.77;;;0.85;;
76103;SDS011;64831;44.870;37.336;2023-12-20T12:27:13;2.05;;;1.13;;
76103;SDS011;64831;44.870;37.336;2023-12-20T12:29:39;2.67;;;0.98;;
76103;SDS011;64831;44.870;37.336;2023-12-20T12:32:09;2.72;;;1.20;;
76103;SDS011;64831;44.870;37.336;2023-12-20T12:34:35;2.42;;;1.02;;
76103;SDS011;64831;44.870;37.336;2023-12-20T12:37:03;3.40;;;1.55;;
76103;SDS011;64831;44.870;37.336;2023-12-20T12:39:30;2.53;;;0.95;;
76103;SDS011;64831;44.870;37.336;2023-12-20T12:41:56;3.40;;;1.27;;
76103;SDS011;64831;44.870;37.336;2023-12-20T12:44:22;3.08;;;1.20;;
76103;SDS011;64831;44.870;37.336;2023-12-20T12:46:51;4.70;;;1.20;;
76103;SDS011;64831;44.870;37.336;2023-12-20T12:49:21;1.63;;;1.25;;
76103;SDS011;64831;44.870;37.336;2023-12-20T12:51:47;5.30;;;1.38;;
76103;SDS011;64831;44.870;37.336;2023-12-20T12:54:14;2.53;;;1.02;;
76103;SDS011;64831;44.870;37.336;2023-12-20T12:56:42;5.28;;;1.10;;
76103;SDS011;64831;44.870;37.336;2023-12-20T12:59:08;1.88;;;1.00;;
76103;SDS011;64831;44.870;37.336;2023-12-20T13:01:34;5.20;;;1.13;;
76103;SDS011;64831;44.870;37.336;2023-12-20T13:04:00;1.83;;;1.15;;
76103;SDS011;64831;44.870;37.336;2023-12-20T13:06:32;1.70;;;1.10;;
76103;SDS011;64831;44.870;37.336;2023-12-20T13:08:58;7.93;;;2.20;;
76103;SDS011;64831;44.870;37.336;2023-12-20T13:11:24;7.35;;;2.60;;
76103;SDS011;64831;44.870;37.336;2023-12-20T13:13:50;7.57;;;2.70;;
76103;SDS011;64831;44.870;37.336;2023-12-20T13:16:16;6.55;;;2.42;;
76103;SDS011;64831;44.870;37.336;2023-12-20T13:18:42;7.47;;;1.90;;
76103;SDS011;64831;44.870;37.336;2023-12-20T13:21:08;5.10;;;1.92;;
76103;SDS011;64831;44.870;37.336;2023-12-20T13:23:35;4.40;;;1.85;;
76103;SDS011;64831;44.870;37.336;2023-12-20T13:26:01;5.60;;;1.65;;
76103;SDS011;64831;44.870;37.336;2023-12-20T13:28:28;8.65;;;2.67;;
76103;SDS011;64831;44.870;37.336;2023-12-20T13:30:54;6.53;;;2.47;;
76103;SDS011;64831;44.870;37.336;2023-12-20T13:33:20;4.97;;;1.90;;
76103;SDS011;64831;44.870;37.336;2023-12-20T13:35:46;5.82;;;1.63;;
76103;SDS011;64831;44.870;37.336;2023-12-20T13:38:13;4.40;;;1.58;;
76103;SDS011;64831;44.870;37.336;2023-12-20T13:40:39;4.70;;;1.23;;
76103;SDS011;64831;44.870;37.336;2023-12-20T13:43:05;2.45;;;1.08;;
76103;SDS011;64831;44.870;37.336;2023-12-20T13:45:31;0.73;;;0.68;;
76103;SDS011;64831;44.870;37.336;2023-12-20T13:47:58;5.45;;;1.20;;
76103;SDS011;64831;44.870;37.336;2023-12-20T13:50:24;1.25;;;0.90;;
76103;SDS011;64831;44.870;37.336;2023-12-20T13:52:51;2.33;;;1.58;;
76103;SDS011;64831;44.870;37.336;2023-12-20T13:55:17;1.42;;;1.00;;
76103;SDS011;64831;44.870;37.336;2023-12-20T13:57:46;1.70;;;1.10;;
76103;SDS011;64831;44.870;37.336;2023-12-20T14:00:13;1.88;;;0.98;;
76103;SDS011;64831;44.870;37.336;2023-12-20T14:02:40;4.93;;;1.10;;
76103;SDS011;64831;44.870;37.336;2023-12-20T14:05:07;2.95;;;1.20;;
76103;SDS011;64831;44.870;37.336;2023-12-20T14:07:36;3.00;;;1.58;;
76103;SDS011;64831;44.870;37.336;2023-12-20T14:10:02;3.33;;;1.20;;
76103;SDS011;64831;44.870;37.336;2023-12-20T14:12:29;1.60;;;1.05;;
76103;SDS011;64831;44.870;37.336;2023-12-20T14:14:55;2.58;;;1.20;;
76103;SDS011;64831;44.870;37.336;2023-12-20T14:17:21;3.45;;;1.38;;
76103;SDS011;64831;44.870;37.336;2023-12-20T14:19:47;9.98;;;1.58;;
76103;SDS011;64831;44.870;37.336;2023-12-20T14:22:13;1.95;;;1.20;;
76103;SDS011;64831;44.870;37.336;2023-12-20T14:24:42;9.40;;;1.70;;
76103;SDS011;64831;44.870;37.336;2023-12-20T14:27:08;7.00;;;1.67;;
76103;SDS011;64831;44.870;37.336;2023-12-20T14:29:35;6.88;;;1.70;;
76103;SDS011;64831;44.870;37.336;2023-12-20T14:32:01;2.25;;;1.27;;
76103;SDS011;64831;44.870;37.336;2023-12-20T14:34:28;1.98;;;0.95;;
76103;SDS011;64831;44.870;37.336;2023-12-20T14:36:55;2.10;;;0.85;;
76103;SDS011;64831;44.870;37.336;2023-12-20T14:39:21;2.47;;;1.38;;
76103;SDS011;64831;44.870;37.336;2023-12-20T14:41:48;3.25;;;0.98;;
76103;SDS011;64831;44.870;37.336;2023-12-20T14:44:14;1.73;;;0.93;;